createdAt,value
2016-12-23T00:00:12.315Z,19.2
2016-12-23T00:01:22.270Z,19.22
2016-12-23T00:02:32.539Z,19.17
2016-12-23T00:03:42.811Z,19.2
2016-12-23T00:04:53.087Z,19.27
2016-12-23T00:06:03.346Z,19.15
2016-12-23T00:07:13.611Z,19.24
2016-12-23T00:08:23.880Z,19.22
2016-12-23T00:09:34.184Z,19.27
2016-12-23T00:10:44.450Z,19.19
2016-12-23T00:11:54.715Z,19.2
2016-12-23T00:13:04.990Z,19.17
2016-12-23T00:14:15.256Z,19.26
2016-12-23T00:15:25.538Z,19.2
2016-12-23T00:16:35.810Z,19.16
2016-12-23T00:17:46.076Z,19.19
2016-12-23T00:18:56.379Z,19.15
2016-12-23T00:20:06.646Z,19.24
2016-12-23T00:21:16.940Z,19.22
2016-12-23T00:22:27.004Z,19.19
2016-12-23T00:23:37.266Z,19.26
2016-12-23T00:24:47.228Z,19.16
2016-12-23T00:25:57.535Z,19.16
2016-12-23T00:27:07.813Z,19.2
2016-12-23T00:28:17.775Z,19.19
2016-12-23T00:29:28.057Z,19.2
2016-12-23T00:30:38.370Z,19.19
2016-12-23T00:31:48.668Z,19.26
2016-12-23T00:32:58.937Z,19.17
2016-12-23T00:34:09.250Z,19.16
2016-12-23T00:35:19.522Z,19.23
2016-12-23T00:36:29.795Z,19.23
2016-12-23T00:37:39.832Z,19.23
2016-12-23T00:38:50.092Z,19.19
2016-12-23T00:40:00.380Z,19.15
2016-12-23T00:41:10.344Z,19.19
2016-12-23T00:42:20.299Z,19.19
2016-12-23T00:43:30.591Z,19.22
2016-12-23T00:44:40.888Z,19.2
2016-12-23T00:45:51.148Z,19.2
2016-12-23T00:47:01.440Z,19.17
2016-12-23T00:48:11.731Z,19.17
2016-12-23T00:49:21.996Z,19.27
2016-12-23T00:50:32.258Z,19.17
2016-12-23T00:51:42.562Z,19.19
2016-12-23T00:52:52.828Z,19.2
2016-12-23T00:54:03.100Z,19.19
2016-12-23T00:55:13.052Z,19.2
2016-12-23T00:56:23.334Z,19.19
2016-12-23T00:57:33.296Z,19.23
2016-12-23T00:58:43.557Z,19.22
2016-12-23T00:59:53.822Z,19.2
2016-12-23T01:01:04.134Z,19.19
2016-12-23T01:02:14.416Z,19.26
2016-12-23T01:03:24.683Z,19.23
2016-12-23T01:04:34.949Z,19.2
2016-12-23T01:05:45.216Z,19.17
2016-12-23T01:06:55.481Z,19.15
2016-12-23T01:08:05.744Z,19.19
2016-12-23T01:09:16.019Z,19.16
2016-12-23T01:10:26.285Z,19.2
2016-12-23T01:11:36.579Z,19.17
2016-12-23T01:12:46.851Z,19.11
2016-12-23T01:13:57.116Z,19.19
2016-12-23T01:15:07.935Z,19.17
2016-12-23T01:16:18.214Z,19.2
2016-12-23T01:17:28.472Z,19.16
2016-12-23T01:18:38.735Z,19.17
2016-12-23T01:19:49.004Z,19.17
2016-12-23T01:20:59.260Z,19.17
2016-12-23T01:22:09.215Z,19.22
2016-12-23T01:23:18.850Z,19.17
2016-12-23T01:24:28.809Z,19.22
2016-12-23T01:25:39.113Z,19.19
2016-12-23T01:26:49.385Z,19.16
2016-12-23T01:27:59.678Z,19.22
2016-12-23T01:29:09.948Z,19.19
2016-12-23T01:30:20.210Z,19.23
2016-12-23T01:31:30.185Z,19.15
2016-12-23T01:32:40.451Z,19.16
2016-12-23T01:33:50.095Z,19.17
2016-12-23T01:35:00.352Z,19.16
2016-12-23T01:36:10.620Z,19.22
2016-12-23T01:37:20.914Z,19.17
2016-12-23T01:38:31.183Z,19.17
2016-12-23T01:39:40.825Z,19.16
2016-12-23T01:40:51.096Z,19.19
2016-12-23T01:42:01.378Z,19.16
2016-12-23T01:43:11.650Z,19.17
2016-12-23T01:44:21.951Z,19.15
2016-12-23T01:45:32.213Z,19.16
2016-12-23T01:46:42.469Z,19.15
2016-12-23T01:47:52.732Z,19.17
2016-12-23T01:49:02.991Z,19.16
2016-12-23T01:50:13.263Z,19.17
2016-12-23T01:51:23.529Z,19.19
2016-12-23T01:52:33.784Z,19.15
2016-12-23T01:53:44.031Z,19.17
2016-12-23T01:54:54.299Z,19.2
2016-12-23T01:56:04.255Z,19.23
2016-12-23T01:57:14.511Z,19.17
2016-12-23T01:58:24.764Z,19.2
2016-12-23T01:59:35.042Z,19.17
2016-12-23T02:00:45.291Z,19.17
2016-12-23T02:01:55.548Z,19.2
2016-12-23T02:03:05.825Z,19.17
2016-12-23T02:04:15.771Z,19.2
2016-12-23T02:05:26.021Z,19.2
2016-12-23T02:06:36.001Z,19.19
2016-12-23T02:07:46.265Z,19.15
2016-12-23T02:08:56.519Z,19.19
2016-12-23T02:10:06.775Z,19.17
2016-12-23T02:11:17.099Z,19.2
2016-12-23T02:12:27.374Z,19.19
2016-12-23T02:13:37.358Z,19.19
2016-12-23T02:14:47.613Z,19.2
2016-12-23T02:15:57.577Z,19.2
2016-12-23T02:17:07.850Z,19.19
2016-12-23T02:18:17.799Z,19.12
2016-12-23T02:19:28.161Z,19.17
2016-12-23T02:20:38.426Z,19.2
2016-12-23T02:21:48.387Z,19.16
2016-12-23T02:22:58.653Z,19.12
2016-12-23T02:24:08.906Z,19.15
2016-12-23T02:25:19.165Z,19.17
2016-12-23T02:26:29.427Z,19.15
2016-12-23T02:27:39.744Z,19.23
2016-12-23T02:28:50.019Z,19.17
2016-12-23T02:30:00.282Z,19.19
2016-12-23T02:31:10.551Z,19.16
2016-12-23T02:32:20.820Z,19.2
2016-12-23T02:33:31.078Z,19.16
2016-12-23T02:34:41.340Z,19.19
2016-12-23T02:35:51.286Z,19.2
2016-12-23T02:37:01.551Z,19.17
2016-12-23T02:38:11.840Z,19.16
2016-12-23T02:39:22.147Z,19.17
2016-12-23T02:40:32.409Z,19.19
2016-12-23T02:41:42.051Z,19.2
2016-12-23T02:42:52.301Z,19.11
2016-12-23T02:44:02.554Z,19.19
2016-12-23T02:45:12.812Z,19.19
2016-12-23T02:46:22.464Z,19.23
2016-12-23T02:47:32.733Z,19.26
2016-12-23T02:48:42.992Z,19.15
2016-12-23T02:49:53.242Z,19.19
2016-12-23T02:51:03.503Z,19.17
2016-12-23T02:52:13.763Z,19.22
2016-12-23T02:53:24.025Z,19.15
2016-12-23T02:54:34.283Z,19.16
2016-12-23T02:55:44.544Z,19.16
2016-12-23T02:56:54.492Z,19.16
2016-12-23T02:58:04.128Z,19.16
2016-12-23T02:59:14.409Z,19.16
2016-12-23T03:00:24.691Z,19.12
2016-12-23T03:01:34.675Z,19.2
2016-12-23T03:02:44.931Z,19.16
2016-12-23T03:03:54.911Z,19.17
2016-12-23T03:05:05.165Z,19.16
2016-12-23T03:06:15.440Z,19.09
2016-12-23T03:07:25.693Z,19.09
2016-12-23T03:08:35.638Z,19.19
2016-12-23T03:09:45.952Z,19.15
2016-12-23T03:10:56.227Z,19.2
2016-12-23T03:12:06.192Z,19.2
2016-12-23T03:13:16.454Z,19.2
2016-12-23T03:14:26.410Z,19.12
2016-12-23T03:15:36.679Z,19.19
2016-12-23T03:16:46.940Z,19.04
2016-12-23T03:17:57.196Z,19.15
2016-12-23T03:19:07.491Z,19.17
2016-12-23T03:20:17.439Z,19.17
2016-12-23T03:21:27.696Z,19.17
2016-12-23T03:22:37.692Z,19.12
2016-12-23T03:23:47.951Z,19.17
2016-12-23T03:24:58.214Z,19.16
2016-12-23T03:26:08.166Z,19.15
2016-12-23T03:27:18.444Z,19.2
2016-12-23T03:28:28.706Z,19.09
2016-12-23T03:29:38.960Z,19.17
2016-12-23T03:30:49.209Z,19.11
2016-12-23T03:31:59.471Z,19.19
2016-12-23T03:33:09.737Z,19.16
2016-12-23T03:34:19.986Z,19.15
2016-12-23T03:35:30.290Z,19.16
2016-12-23T03:36:40.592Z,19.19
2016-12-23T03:37:50.855Z,19.16
2016-12-23T03:39:01.119Z,19.15
2016-12-23T03:40:11.382Z,19.15
2016-12-23T03:41:21.648Z,19.16
2016-12-23T03:42:31.593Z,19.22
2016-12-23T03:43:41.546Z,19.19
2016-12-23T03:44:51.506Z,19.16
2016-12-23T03:46:01.767Z,19.15
2016-12-23T03:47:12.028Z,19.15
2016-12-23T03:48:21.997Z,19.11
2016-12-23T03:49:31.945Z,19.16
2016-12-23T03:50:42.211Z,19.09
2016-12-23T03:51:52.467Z,19.11
2016-12-23T03:53:02.738Z,19.04
2016-12-23T03:54:12.998Z,19.17
2016-12-23T03:55:23.254Z,19.16
2016-12-23T03:56:33.514Z,19.12
2016-12-23T03:57:43.779Z,19.17
2016-12-23T03:58:53.852Z,19.08
2016-12-23T04:00:03.811Z,19.15
2016-12-23T04:01:14.089Z,19.19
2016-12-23T04:02:24.086Z,19.16
2016-12-23T04:03:34.032Z,19.07
2016-12-23T04:04:43.990Z,19.15
2016-12-23T04:05:54.252Z,19.07
2016-12-23T04:07:04.511Z,19.16
2016-12-23T04:08:14.781Z,19.16
2016-12-23T04:09:24.422Z,19.16
2016-12-23T04:10:34.678Z,19.11
2016-12-23T04:11:44.947Z,19.16
2016-12-23T04:12:55.200Z,19.2
2016-12-23T04:14:05.146Z,19.16
2016-12-23T04:15:15.430Z,19.19
2016-12-23T04:16:25.696Z,19.17
2016-12-23T04:17:35.990Z,19.19
2016-12-23T04:18:46.249Z,19.16
2016-12-23T04:19:56.195Z,19.05
2016-12-23T04:21:06.445Z,19.11
2016-12-23T04:22:16.707Z,19.2
2016-12-23T04:23:26.970Z,19.16
2016-12-23T04:24:36.953Z,19.16
2016-12-23T04:25:47.213Z,19.16
2016-12-23T04:26:57.488Z,19.11
2016-12-23T04:28:07.750Z,19.19
2016-12-23T04:29:18.005Z,19.19
2016-12-23T04:30:28.259Z,19.19
2016-12-23T04:31:38.506Z,19.19
2016-12-23T04:32:48.451Z,19.19
2016-12-23T04:33:58.707Z,19.15
2016-12-23T04:35:09.469Z,19.17
2016-12-23T04:36:19.727Z,19.19
2016-12-23T04:37:29.706Z,19.19
2016-12-23T04:38:39.654Z,19.09
2016-12-23T04:39:49.913Z,19.12
2016-12-23T04:40:59.866Z,19.19
2016-12-23T04:42:10.131Z,19.17
2016-12-23T04:43:20.093Z,19.12
2016-12-23T04:44:30.035Z,19.15
2016-12-23T04:45:40.294Z,19.2
2016-12-23T04:46:50.563Z,19.07
2016-12-23T04:48:00.835Z,19.17
2016-12-23T04:49:11.123Z,19.19
2016-12-23T04:50:21.388Z,19.15
2016-12-23T04:51:31.365Z,19.19
2016-12-23T04:52:41.634Z,19.2
2016-12-23T04:53:51.897Z,19.11
2016-12-23T04:55:02.150Z,19.16
2016-12-23T04:56:11.791Z,19.04
2016-12-23T04:57:22.045Z,19.17
2016-12-23T04:58:32.310Z,19.2
2016-12-23T04:59:42.262Z,19.2
2016-12-23T05:00:52.527Z,19.09
2016-12-23T05:02:02.475Z,19.2
2016-12-23T05:03:12.741Z,19.2
2016-12-23T05:04:23.007Z,19.16
2016-12-23T05:05:33.276Z,19.07
2016-12-23T05:06:43.573Z,19.15
2016-12-23T05:07:53.531Z,19.08
2016-12-23T05:09:03.529Z,19.16
2016-12-23T05:10:13.465Z,19.22
2016-12-23T05:11:23.734Z,19.16
2016-12-23T05:12:33.683Z,19.2
2016-12-23T05:13:43.952Z,19.19
2016-12-23T05:14:54.230Z,19.17
2016-12-23T05:16:04.505Z,19.12
2016-12-23T05:17:14.760Z,19.2
2016-12-23T05:18:24.092Z,19.09
2016-12-23T05:19:34.044Z,19.08
2016-12-23T05:20:44.306Z,19.19
2016-12-23T05:21:54.262Z,19.08
2016-12-23T05:23:04.542Z,19.07
2016-12-23T05:24:14.819Z,19.16
2016-12-23T05:25:24.473Z,19.08
2016-12-23T05:26:34.768Z,19.07
2016-12-23T05:27:45.032Z,19.17
2016-12-23T05:28:55.293Z,19.09
2016-12-23T05:30:05.564Z,19.09
2016-12-23T05:31:15.827Z,19.19
2016-12-23T05:32:26.095Z,19.16
2016-12-23T05:33:36.045Z,19.17
2016-12-23T05:34:46.306Z,19.09
2016-12-23T05:35:56.563Z,19.08
2016-12-23T05:37:06.827Z,19.16
2016-12-23T05:38:16.784Z,19.07
2016-12-23T05:39:27.062Z,19.2
2016-12-23T05:40:37.365Z,19.09
2016-12-23T05:41:47.637Z,19.19
2016-12-23T05:42:57.577Z,19.16
2016-12-23T05:44:07.862Z,19.09
2016-12-23T05:45:18.124Z,19.17
2016-12-23T05:46:28.400Z,19.17
2016-12-23T05:47:38.669Z,19.08
2016-12-23T05:48:48.942Z,19.16
2016-12-23T05:49:59.210Z,19.19
2016-12-23T05:51:09.165Z,19.15
2016-12-23T05:52:19.446Z,19.15
2016-12-23T05:53:29.712Z,19.11
2016-12-23T05:54:39.968Z,19.19
2016-12-23T05:55:49.923Z,19.16
2016-12-23T05:57:00.188Z,19.08
2016-12-23T05:58:10.476Z,19.09
2016-12-23T05:59:20.733Z,19.08
2016-12-23T06:00:31.002Z,19.08
2016-12-23T06:01:41.277Z,19.08
2016-12-23T06:02:51.236Z,19.04
2016-12-23T06:04:01.498Z,19.19
2016-12-23T06:05:11.754Z,19.08
2016-12-23T06:06:22.016Z,19.07
2016-12-23T06:07:31.968Z,19.16
2016-12-23T06:08:42.227Z,19.17
2016-12-23T06:09:52.176Z,19.19
2016-12-23T06:11:01.840Z,19.05
2016-12-23T06:12:11.495Z,19.05
2016-12-23T06:13:21.146Z,19.19
2016-12-23T06:14:31.437Z,19.07
2016-12-23T06:15:41.728Z,19.16
2016-12-23T06:16:51.984Z,19.08
2016-12-23T06:18:02.269Z,19.19
2016-12-23T06:19:12.535Z,19.07
2016-12-23T06:20:22.801Z,19.07
2016-12-23T06:21:33.062Z,19.09
2016-12-23T06:22:43.013Z,19.15
2016-12-23T06:23:53.280Z,19.07
2016-12-23T06:25:03.536Z,19.16
2016-12-23T06:26:13.197Z,19.19
2016-12-23T06:27:23.150Z,19.12
2016-12-23T06:28:32.794Z,19.19
2016-12-23T06:29:43.318Z,19.15
2016-12-23T06:30:53.578Z,19.07
2016-12-23T06:32:03.530Z,19.19
2016-12-23T06:33:13.811Z,19.17
2016-12-23T06:34:24.074Z,19.05
2016-12-23T06:35:34.337Z,19.09
2016-12-23T06:36:44.605Z,19.07
2016-12-23T06:37:54.871Z,19.09
2016-12-23T06:39:05.175Z,19.17
2016-12-23T06:40:15.438Z,19.16
2016-12-23T06:41:25.396Z,19.16
2016-12-23T06:42:35.367Z,19.09
2016-12-23T06:43:45.633Z,19.04
2016-12-23T06:44:55.927Z,19.19
2016-12-23T06:46:06.187Z,19.19
2016-12-23T06:47:16.145Z,19.16
2016-12-23T06:48:26.115Z,19.19
2016-12-23T06:49:36.381Z,19.07
2016-12-23T06:50:46.661Z,19.2
2016-12-23T06:51:56.922Z,19.12
2016-12-23T06:53:06.874Z,19.07
2016-12-23T06:54:16.823Z,19.16
2016-12-23T06:55:27.107Z,19.05
2016-12-23T06:56:37.386Z,19.15
2016-12-23T06:57:47.034Z,19.19
2016-12-23T06:58:57.287Z,19.19
2016-12-23T07:00:07.566Z,19.09
2016-12-23T07:01:17.837Z,19.19
2016-12-23T07:02:28.099Z,19.19
2016-12-23T07:03:38.365Z,19.09
2016-12-23T07:04:48.628Z,19.17
2016-12-23T07:05:58.897Z,19.12
2016-12-23T07:07:08.864Z,19.17
2016-12-23T07:08:19.130Z,19.17
2016-12-23T07:09:29.399Z,19.16
2016-12-23T07:10:39.670Z,19.16
2016-12-23T07:11:49.936Z,19.04
2016-12-23T07:13:00.196Z,19.09
2016-12-23T07:14:10.315Z,19.07
2016-12-23T07:15:20.572Z,19.16
2016-12-23T07:16:30.836Z,19.08
2016-12-23T07:17:40.798Z,19.07
2016-12-23T07:18:51.085Z,19.2
2016-12-23T07:20:01.370Z,19.19
2016-12-23T07:21:11.328Z,19.11
2016-12-23T07:22:21.607Z,19.22
2016-12-23T07:23:31.911Z,19.16
2016-12-23T07:24:42.576Z,19.17
2016-12-23T07:25:52.855Z,19.12
2016-12-23T07:27:03.133Z,19.09
2016-12-23T07:28:13.404Z,19.19
2016-12-23T07:29:23.668Z,19.19
2016-12-23T07:30:33.623Z,19.15
2016-12-23T07:31:43.573Z,19.12
2016-12-23T07:32:53.853Z,19.08
2016-12-23T07:34:04.125Z,19.19
2016-12-23T07:35:14.407Z,19.19
2016-12-23T07:36:24.685Z,19.12
2016-12-23T07:37:34.644Z,19.16
2016-12-23T07:38:44.604Z,19.12
2016-12-23T07:39:54.880Z,19.04
2016-12-23T07:41:05.370Z,19.16
2016-12-23T07:42:15.636Z,19.19
2016-12-23T07:43:25.902Z,19.17
2016-12-23T07:44:36.174Z,19.22
2016-12-23T07:45:46.442Z,19.2
2016-12-23T07:46:56.707Z,19.2
2016-12-23T07:48:06.653Z,19.11
2016-12-23T07:49:16.619Z,19.2
2016-12-23T07:50:26.897Z,19.15
2016-12-23T07:51:37.182Z,19.16
2016-12-23T07:52:47.754Z,19.17
2016-12-23T07:53:57.702Z,19.23
2016-12-23T07:55:07.962Z,19.16
2016-12-23T07:56:18.227Z,19.17
2016-12-23T07:57:28.502Z,19.16
2016-12-23T07:58:38.772Z,19.12
2016-12-23T07:59:49.044Z,19.15
2016-12-23T08:00:59.302Z,19.16
2016-12-23T08:02:09.565Z,19.16
2016-12-23T08:03:19.860Z,19.04
2016-12-23T08:04:30.159Z,19.15
2016-12-23T08:05:40.412Z,19.04
2016-12-23T08:06:50.675Z,19.17
2016-12-23T08:08:00.944Z,19.17
2016-12-23T08:09:11.206Z,19.23
2016-12-23T08:10:21.657Z,19.15
2016-12-23T08:11:31.939Z,19.12
2016-12-23T08:12:42.199Z,19.16
2016-12-23T08:13:52.467Z,19.11
2016-12-23T08:15:02.724Z,19.12
2016-12-23T08:16:13.011Z,19.17
2016-12-23T08:17:23.283Z,19.2
2016-12-23T08:18:33.540Z,19.15
2016-12-23T08:19:43.869Z,19.16
2016-12-23T08:20:54.141Z,19.19
2016-12-23T08:22:04.419Z,19.16
2016-12-23T08:23:14.380Z,19.15
2016-12-23T08:24:24.351Z,19.16
2016-12-23T08:25:34.633Z,19.23
2016-12-23T08:26:44.914Z,19.17
2016-12-23T08:27:55.189Z,19.19
2016-12-23T08:29:05.448Z,19.22
2016-12-23T08:30:15.092Z,19.17
2016-12-23T08:31:25.048Z,19.19
2016-12-23T08:32:35.332Z,19.16
2016-12-23T08:33:45.588Z,19.17
2016-12-23T08:34:55.867Z,19.24
2016-12-23T08:36:06.139Z,19.19
2016-12-23T08:37:16.429Z,19.2
2016-12-23T08:38:26.703Z,19.16
2016-12-23T08:39:36.682Z,19.2
2016-12-23T08:40:46.634Z,19.15
2016-12-23T08:41:56.944Z,19.26
2016-12-23T08:43:06.903Z,19.15
2016-12-23T08:44:17.175Z,19.19
2016-12-23T08:45:27.480Z,19.22
2016-12-23T08:46:37.440Z,19.19
2016-12-23T08:47:47.715Z,19.2
2016-12-23T08:48:57.984Z,19.19
2016-12-23T08:50:07.949Z,19.16
2016-12-23T08:51:18.221Z,19.15
2016-12-23T08:52:28.189Z,19.24
2016-12-23T08:53:38.461Z,19.15
2016-12-23T08:54:48.727Z,19.2
2016-12-23T08:55:58.992Z,19.19
2016-12-23T08:57:08.944Z,19.2
2016-12-23T08:58:19.209Z,19.17
2016-12-23T08:59:29.167Z,19.19
2016-12-23T09:00:39.424Z,19.17
2016-12-23T09:01:49.407Z,19.17
2016-12-23T09:02:59.670Z,19.19
2016-12-23T09:04:09.632Z,19.17
2016-12-23T09:05:19.948Z,19.17
2016-12-23T09:06:29.958Z,19.19
2016-12-23T09:07:40.218Z,19.19
2016-12-23T09:08:50.181Z,19.15
2016-12-23T09:10:00.134Z,19.15
2016-12-23T09:11:10.419Z,19.17
2016-12-23T09:12:20.713Z,19.2
2016-12-23T09:13:30.979Z,19.22
2016-12-23T09:14:41.244Z,19.22
2016-12-23T09:15:51.520Z,19.15
2016-12-23T09:17:01.798Z,19.2
2016-12-23T09:18:12.111Z,19.19
2016-12-23T09:19:22.931Z,19.19
2016-12-23T09:20:33.196Z,19.2
2016-12-23T09:21:43.472Z,19.24
2016-12-23T09:22:53.746Z,19.16
2016-12-23T09:24:03.708Z,19.19
2016-12-23T09:25:14.006Z,19.2
2016-12-23T09:26:24.272Z,19.2
2016-12-23T09:27:34.547Z,19.2
2016-12-23T09:28:44.812Z,19.22
2016-12-23T09:29:55.096Z,19.16
2016-12-23T09:31:05.349Z,19.19
2016-12-23T09:32:15.635Z,19.16
2016-12-23T09:33:25.916Z,19.19
2016-12-23T09:34:36.184Z,19.22
2016-12-23T09:35:46.233Z,19.2
2016-12-23T09:36:56.187Z,19.17
2016-12-23T09:38:06.499Z,19.2
2016-12-23T09:39:16.755Z,19.19
2016-12-23T09:40:27.039Z,19.2
2016-12-23T09:41:37.302Z,19.2
2016-12-23T09:42:47.567Z,19.17
2016-12-23T09:43:57.852Z,19.17
2016-12-23T09:45:08.118Z,19.19
2016-12-23T09:46:18.380Z,19.17
2016-12-23T09:47:28.694Z,19.17
2016-12-23T09:48:38.969Z,19.15
2016-12-23T09:49:49.228Z,19.2
2016-12-23T09:50:59.174Z,19.2
2016-12-23T09:52:09.449Z,19.2
2016-12-23T09:53:19.705Z,19.22
2016-12-23T09:54:29.968Z,19.15
2016-12-23T09:55:40.246Z,19.19
2016-12-23T09:56:50.517Z,19.16
2016-12-23T09:58:00.473Z,19.2
2016-12-23T09:59:10.447Z,19.22
2016-12-23T10:00:20.703Z,19.19
2016-12-23T10:01:30.688Z,19.19
2016-12-23T10:02:40.961Z,19.23
2016-12-23T10:03:51.215Z,19.23
2016-12-23T10:05:01.529Z,19.22
2016-12-23T10:06:11.788Z,19.16
2016-12-23T10:07:22.059Z,19.16
2016-12-23T10:08:32.009Z,19.24
2016-12-23T10:09:42.284Z,19.22
2016-12-23T10:10:52.547Z,19.23
2016-12-23T10:12:02.806Z,19.19
2016-12-23T10:13:13.082Z,19.19
2016-12-23T10:14:23.033Z,19.24
2016-12-23T10:15:32.989Z,19.23
2016-12-23T10:16:43.267Z,19.2
2016-12-23T10:17:53.533Z,19.19
2016-12-23T10:19:03.812Z,19.24
2016-12-23T10:20:13.761Z,19.22
2016-12-23T10:21:24.039Z,19.23
2016-12-23T10:22:34.323Z,19.22
2016-12-23T10:23:44.274Z,19.17
2016-12-23T10:24:54.522Z,19.22
2016-12-23T10:26:04.499Z,19.22
2016-12-23T10:27:14.791Z,19.23
2016-12-23T10:28:25.079Z,19.2
2016-12-23T10:29:35.389Z,19.19
2016-12-23T10:30:45.347Z,19.22
2016-12-23T10:31:55.604Z,19.24
2016-12-23T10:33:05.876Z,19.23
2016-12-23T10:34:16.151Z,19.17
2016-12-23T10:35:26.442Z,19.17
2016-12-23T10:36:36.721Z,19.22
2016-12-23T10:37:46.993Z,19.26
2016-12-23T10:38:57.271Z,19.26
2016-12-23T10:40:07.550Z,19.23
2016-12-23T10:41:17.829Z,19.27
2016-12-23T10:42:28.110Z,19.22
2016-12-23T10:43:38.407Z,19.16
2016-12-23T10:44:48.674Z,19.29
2016-12-23T10:45:58.625Z,19.24
2016-12-23T10:47:08.584Z,19.19
2016-12-23T10:48:18.856Z,19.2
2016-12-23T10:49:29.141Z,19.22
2016-12-23T10:50:39.644Z,19.19
2016-12-23T10:51:49.927Z,19.26
2016-12-23T10:53:00.220Z,19.2
2016-12-23T10:54:10.504Z,19.24
2016-12-23T10:55:20.804Z,19.26
2016-12-23T10:56:31.080Z,19.23
2016-12-23T10:57:41.332Z,19.2
2016-12-23T10:58:51.598Z,19.27
2016-12-23T11:00:01.560Z,19.17
2016-12-23T11:01:11.833Z,19.22
2016-12-23T11:02:22.095Z,19.2
2016-12-23T11:03:32.366Z,19.19
2016-12-23T11:04:42.312Z,19.2
2016-12-23T11:05:52.271Z,19.16
2016-12-23T11:07:02.552Z,19.22
2016-12-23T11:08:12.817Z,19.22
2016-12-23T11:09:23.077Z,19.19
2016-12-23T11:10:33.061Z,19.16
2016-12-23T11:11:43.323Z,19.22
2016-12-23T11:12:53.586Z,19.2
2016-12-23T11:14:03.858Z,19.23
2016-12-23T11:15:14.121Z,19.19
2016-12-23T11:16:24.085Z,19.22
2016-12-23T11:17:34.376Z,19.19
2016-12-23T11:18:44.649Z,19.26
2016-12-23T11:19:54.931Z,19.27
2016-12-23T11:21:05.216Z,19.23
2016-12-23T11:22:15.499Z,19.22
2016-12-23T11:23:25.455Z,19.27
2016-12-23T11:24:35.724Z,19.2
2016-12-23T11:25:45.993Z,19.29
2016-12-23T11:26:56.256Z,19.29
2016-12-23T11:28:06.537Z,19.23
2016-12-23T11:29:16.802Z,19.23
2016-12-23T11:30:27.068Z,19.24
2016-12-23T11:31:37.032Z,19.29
2016-12-23T11:32:47.292Z,19.27
2016-12-23T11:33:57.577Z,19.23
2016-12-23T11:35:07.865Z,19.26
2016-12-23T11:36:17.813Z,19.3
2016-12-23T11:37:28.094Z,19.29
2016-12-23T11:38:38.425Z,19.27
2016-12-23T11:39:48.691Z,19.24
2016-12-23T11:40:58.979Z,19.2
2016-12-23T11:42:09.251Z,19.24
2016-12-23T11:43:19.523Z,19.29
2016-12-23T11:44:29.475Z,19.26
2016-12-23T11:45:39.740Z,19.27
2016-12-23T11:46:49.996Z,19.24
2016-12-23T11:48:00.262Z,19.24
2016-12-23T11:49:10.540Z,19.24
2016-12-23T11:50:20.819Z,19.22
2016-12-23T11:51:31.104Z,19.2
2016-12-23T11:52:41.379Z,19.19
2016-12-23T11:53:51.671Z,19.2
2016-12-23T11:55:01.936Z,19.26
2016-12-23T11:56:12.262Z,19.23
2016-12-23T11:57:22.524Z,19.29
2016-12-23T11:58:32.803Z,19.26
2016-12-23T11:59:43.069Z,19.32
2016-12-23T12:00:53.344Z,19.3
2016-12-23T12:02:03.622Z,19.32
2016-12-23T12:03:13.600Z,19.2
2016-12-23T12:04:23.862Z,19.29
2016-12-23T12:05:34.173Z,19.24
2016-12-23T12:06:44.439Z,19.29
2016-12-23T12:07:54.708Z,19.26
2016-12-23T12:09:04.985Z,19.35
2016-12-23T12:10:15.247Z,19.29
2016-12-23T12:11:25.536Z,19.29
2016-12-23T12:12:35.808Z,19.29
2016-12-23T12:13:45.769Z,19.29
2016-12-23T12:14:55.728Z,19.27
2016-12-23T12:16:05.703Z,19.3
2016-12-23T12:17:15.661Z,19.3
2016-12-23T12:18:25.930Z,19.27
2016-12-23T12:19:43.997Z,19.24
2016-12-23T12:20:53.994Z,19.26
2016-12-23T12:22:04.365Z,19.3
2016-12-23T12:23:14.618Z,19.23
2016-12-23T12:24:24.890Z,19.27
2016-12-23T12:25:35.159Z,19.34
2016-12-23T12:26:45.130Z,19.27
2016-12-23T12:27:55.399Z,19.27
2016-12-23T12:29:05.665Z,19.26
2016-12-23T12:30:15.933Z,19.29
2016-12-23T12:31:26.202Z,19.26
2016-12-23T12:32:36.471Z,19.32
2016-12-23T12:33:46.762Z,19.29
2016-12-23T12:34:57.063Z,19.27
2016-12-23T12:36:07.348Z,19.3
2016-12-23T12:37:17.623Z,19.27
2016-12-23T12:38:27.911Z,19.24
2016-12-23T12:39:37.886Z,19.29
2016-12-23T12:40:48.157Z,19.29
2016-12-23T12:41:58.116Z,19.22
2016-12-23T12:43:08.390Z,19.29
2016-12-23T12:44:18.673Z,19.26
2016-12-23T12:45:28.948Z,19.24
2016-12-23T12:46:39.216Z,19.23
2016-12-23T12:47:49.484Z,19.29
2016-12-23T12:48:59.441Z,19.29
2016-12-23T12:50:09.415Z,19.37
2016-12-23T12:51:19.680Z,19.27
2016-12-23T12:52:29.981Z,19.34
2016-12-23T12:53:40.265Z,19.24
2016-12-23T12:54:50.560Z,19.34
2016-12-23T12:56:00.835Z,19.32
2016-12-23T12:57:11.424Z,19.24
2016-12-23T12:58:21.699Z,19.3
2016-12-23T12:59:31.968Z,19.24
2016-12-23T13:00:42.221Z,19.34
2016-12-23T13:01:52.490Z,19.29
2016-12-23T13:03:02.768Z,19.29
2016-12-23T13:04:13.092Z,19.29
2016-12-23T13:05:23.360Z,19.24
2016-12-23T13:06:33.309Z,19.34
2016-12-23T13:07:43.572Z,19.24
2016-12-23T13:08:53.830Z,19.23
2016-12-23T13:10:04.103Z,19.34
2016-12-23T13:11:14.086Z,19.27
2016-12-23T13:12:24.385Z,19.26
2016-12-23T13:13:34.366Z,19.29
2016-12-23T13:14:44.654Z,19.32
2016-12-23T13:15:54.922Z,19.29
2016-12-23T13:17:05.187Z,19.37
2016-12-23T13:18:15.479Z,19.32
2016-12-23T13:19:25.763Z,19.3
2016-12-23T13:20:36.045Z,19.34
2016-12-23T13:21:46.314Z,19.34
2016-12-23T13:22:56.279Z,19.34
2016-12-23T13:24:06.550Z,19.26
2016-12-23T13:25:16.842Z,19.26
2016-12-23T13:26:27.123Z,19.37
2016-12-23T13:27:37.089Z,19.3
2016-12-23T13:28:47.373Z,19.34
2016-12-23T13:29:57.635Z,19.29
2016-12-23T13:31:07.917Z,19.34
2016-12-23T13:32:18.211Z,19.3
2016-12-23T13:33:28.483Z,19.34
2016-12-23T13:34:38.752Z,19.26
2016-12-23T13:35:49.028Z,19.34
2016-12-23T13:36:58.996Z,19.3
2016-12-23T13:38:08.964Z,19.29
2016-12-23T13:39:19.267Z,19.3
2016-12-23T13:40:29.532Z,19.27
2016-12-23T13:41:39.805Z,19.27
2016-12-23T13:42:50.077Z,19.34
2016-12-23T13:44:00.339Z,19.27
2016-12-23T13:45:10.643Z,19.29
2016-12-23T13:46:20.919Z,19.23
2016-12-23T13:47:31.753Z,19.32
2016-12-23T13:48:42.067Z,19.34
2016-12-23T13:49:52.349Z,19.37
2016-12-23T13:51:02.640Z,19.29
2016-12-23T13:52:12.916Z,19.32
2016-12-23T13:53:23.184Z,19.3
2016-12-23T13:54:33.443Z,19.34
2016-12-23T13:55:43.712Z,19.3
2016-12-23T13:56:54.004Z,19.37
2016-12-23T13:58:04.282Z,19.32
2016-12-23T13:59:14.582Z,19.29
2016-12-23T14:00:24.861Z,19.29
2016-12-23T14:01:35.146Z,19.32
2016-12-23T14:02:45.443Z,19.27
2016-12-23T14:03:55.427Z,19.32
2016-12-23T14:05:05.702Z,19.29
2016-12-23T14:06:15.686Z,19.29
2016-12-23T14:07:25.958Z,19.35
2016-12-23T14:08:36.227Z,19.3
2016-12-23T14:09:46.493Z,19.29
2016-12-23T14:10:56.454Z,19.32
2016-12-23T14:12:06.727Z,19.3
2016-12-23T14:13:17.005Z,19.32
2016-12-23T14:14:27.283Z,19.27
2016-12-23T14:15:37.538Z,19.3
2016-12-23T14:16:47.827Z,19.26
2016-12-23T14:17:58.103Z,19.35
2016-12-23T14:19:08.066Z,19.32
2016-12-23T14:20:18.333Z,19.38
2016-12-23T14:21:28.602Z,19.27
2016-12-23T14:22:38.870Z,19.35
2016-12-23T14:23:49.140Z,19.32
2016-12-23T14:24:59.418Z,19.32
2016-12-23T14:26:09.687Z,19.27
2016-12-23T14:27:19.683Z,19.3
2016-12-23T14:28:29.955Z,19.3
2016-12-23T14:29:40.230Z,19.35
2016-12-23T14:31:11.436Z,19.3
2016-12-23T14:32:21.724Z,19.32
2016-12-23T14:33:31.711Z,19.27
2016-12-23T14:34:41.986Z,19.29
2016-12-23T14:35:52.246Z,19.3
2016-12-23T14:37:02.214Z,19.32
2016-12-23T14:38:12.501Z,19.37
2016-12-23T14:39:22.784Z,19.35
2016-12-23T14:40:33.048Z,19.34
2016-12-23T14:41:43.337Z,19.34
2016-12-23T14:42:53.596Z,19.34
2016-12-23T14:44:03.852Z,19.27
2016-12-23T14:45:14.118Z,19.3
2016-12-23T14:46:24.396Z,19.26
2016-12-23T14:47:34.674Z,19.35
2016-12-23T14:48:44.949Z,19.29
2016-12-23T14:49:54.901Z,19.34
2016-12-23T14:51:05.173Z,19.27
2016-12-23T14:52:15.447Z,19.27
2016-12-23T14:53:25.394Z,19.27
2016-12-23T14:54:35.668Z,19.27
2016-12-23T14:55:45.630Z,19.24
2016-12-23T14:56:55.602Z,19.29
2016-12-23T14:58:05.869Z,19.3
2016-12-23T14:59:16.132Z,19.3
2016-12-23T15:00:26.417Z,19.32
2016-12-23T15:01:36.715Z,19.3
2016-12-23T15:02:46.992Z,19.27
2016-12-23T15:03:57.258Z,19.34
2016-12-23T15:05:07.540Z,19.39
2016-12-23T15:06:17.831Z,19.34
2016-12-23T15:07:28.112Z,19.3
2016-12-23T15:08:38.384Z,19.27